Time;durP1;ratioP1;P1;durP2;ratioP2;P2;SDS_P1;SDS_P2;PMS_P1;PMS_P2;Temp;Humidity;BMP_temperature;BMP_pressure;BME280_temperature;BME280_humidity;BME280_pressure;Samples;Min_cycle;Max_cycle;Signal;HPM_P1;HPM_P2
2022/09/26 00:01:14;;;;;;;4.22;1.95;;;;;;;;;;4960905;28;20059;-57
2022/09/26 00:03:42;;;;;;;2.90;1.65;;;;;;;;;;4948005;28;20862;-55
2022/09/26 00:06:09;;;;;;;7.10;1.50;;;;;;;;;;4957556;28;20058;-57
2022/09/26 00:08:37;;;;;;;3.15;1.65;;;;;;;;;;4969764;28;20118;-57
2022/09/26 00:11:06;;;;;;;3.30;1.52;;;;;;;;;;4973194;28;20132;-53
2022/09/26 00:13:34;;;;;;;3.58;1.67;;;;;;;;;;4963256;28;20071;-56
2022/09/26 00:16:01;;;;;;;5.50;1.60;;;;;;;;;;4960975;28;20047;-49
2022/09/26 00:18:28;;;;;;;4.28;1.50;;;;;;;;;;4967358;28;20062;-53
2022/09/26 00:21:02;;;;;;;4.45;1.83;;;;;;;;;;4972310;28;20066;-62
2022/09/26 00:23:28;;;;;;;4.40;1.73;;;;;;;;;;4968963;28;20069;-59
2022/09/26 00:25:57;;;;;;;3.72;1.48;;;;;;;;;;4971756;28;20054;-58
2022/09/26 00:28:23;;;;;;;;;;;;;;;;;;4960637;28;20054;-54
2022/09/26 00:30:51;;;;;;;4.90;1.80;;;;;;;;;;4954368;28;19922;-60
2022/09/26 00:33:18;;;;;;;3.45;1.70;;;;;;;;;;4965661;28;20055;-63
2022/09/26 00:35:49;;;;;;;3.10;1.60;;;;;;;;;;4952115;28;20042;-57
2022/09/26 00:38:16;;;;;;;4.25;1.60;;;;;;;;;;4957790;28;20094;-67
2022/09/26 00:40:42;;;;;;;5.15;1.27;;;;;;;;;;4970188;28;20055;-57
2022/09/26 00:43:24;;;;;;;4.90;1.75;;;;;;;;;;4961205;28;20059;-61
2022/09/26 00:45:52;;;;;;;4.78;1.67;;;;;;;;;;4952621;28;20099;-58
2022/09/26 00:48:19;;;;;;;3.45;1.35;;;;;;;;;;4959316;28;20055;-63
2022/09/26 00:50:46;;;;;;;3.25;1.30;;;;;;;;;;4963052;28;20047;-65
2022/09/26 00:53:16;;;;;;;3.58;1.35;;;;;;;;;;4977629;28;20082;-60
2022/09/26 00:55:45;;;;;;;4.03;1.75;;;;;;;;;;4956612;28;20057;-60
2022/09/26 00:58:13;;;;;;;3.40;1.30;;;;;;;;;;4979767;28;20058;-56
2022/09/26 01:00:40;;;;;;;3.47;1.37;;;;;;;;;;4960259;28;20058;-59
2022/09/26 01:03:08;;;;;;;6.97;1.58;;;;;;;;;;4962586;28;20309;-61
2022/09/26 01:05:36;;;;;;;5.85;1.77;;;;;;;;;;4969524;28;20058;-61
2022/09/26 01:08:04;;;;;;;3.78;1.85;;;;;;;;;;4954638;28;20113;-56
2022/09/26 01:10:32;;;;;;;2.60;1.70;;;;;;;;;;4977888;28;20227;-57
2022/09/26 01:13:01;;;;;;;1.90;1.20;;;;;;;;;;4975571;28;20058;-60
2022/09/26 01:15:28;;;;;;;4.10;1.52;;;;;;;;;;4961666;28;20144;-59
2022/09/26 01:17:55;;;;;;;3.00;1.25;;;;;;;;;;4955556;28;20054;-64
2022/09/26 01:20:40;;;;;;;2.72;1.20;;;;;;;;;;4970556;28;20145;-58
2022/09/26 01:23:26;;;;;;;2.65;1.30;;;;;;;;;;4954886;28;20054;-63
2022/09/26 01:26:09;;;;;;;3.58;1.40;;;;;;;;;;4961953;28;20086;-59
2022/09/26 01:28:45;;;;;;;2.78;1.52;;;;;;;;;;4954777;28;20061;-55
2022/09/26 01:31:16;;;;;;;4.30;1.75;;;;;;;;;;4963022;28;20137;-62
2022/09/26 01:33:50;;;;;;;3.38;1.65;;;;;;;;;;4976074;28;20054;-61
2022/09/26 01:36:35;;;;;;;3.13;1.33;;;;;;;;;;4968761;28;20164;-58
2022/09/26 01:39:11;;;;;;;2.65;1.58;;;;;;;;;;4971033;28;20058;-58
2022/09/26 01:41:44;;;;;;;3.10;1.48;;;;;;;;;;4962598;28;20116;-64
2022/09/26 01:44:15;;;;;;;4.30;1.60;;;;;;;;;;4979379;28;20078;-60
2022/09/26 01:46:46;;;;;;;2.97;1.58;;;;;;;;;;4970108;28;20133;-61
2022/09/26 01:49:16;;;;;;;4.10;1.67;;;;;;;;;;4957677;28;20082;-61
2022/09/26 01:51:47;;;;;;;4.00;1.52;;;;;;;;;;4975082;28;20054;-62
2022/09/26 01:54:17;;;;;;;4.32;1.58;;;;;;;;;;4969009;28;20062;-60
2022/09/26 01:56:45;;;;;;;6.55;1.80;;;;;;;;;;4976018;28;20058;-66
2022/09/26 01:59:12;;;;;;;;;;;;;;;;;;4952796;28;20055;-65
2022/09/26 02:01:42;;;;;;;2.45;1.55;;;;;;;;;;4965208;28;19929;-65
2022/09/26 02:04:11;;;;;;;4.90;1.38;;;;;;;;;;4964527;28;20141;-66
2022/09/26 02:06:40;;;;;;;6.72;1.65;;;;;;;;;;4971652;28;20051;-65
2022/09/26 02:09:09;;;;;;;5.63;1.80;;;;;;;;;;4966034;28;20065;-56
2022/09/26 02:11:35;;;;;;;;;;;;;;;;;;4972216;28;20050;-58
2022/09/26 02:14:03;;;;;;;6.45;2.45;;;;;;;;;;4965416;28;19926;-61
2022/09/26 02:16:32;;;;;;;4.53;1.77;;;;;;;;;;4970922;28;20138;-62
2022/09/26 02:18:58;;;;;;;;;;;;;;;;;;4966329;28;20050;-56
2022/09/26 02:21:26;;;;;;;7.43;2.22;;;;;;;;;;4987469;28;19926;-59
2022/09/26 02:23:54;;;;;;;5.05;2.22;;;;;;;;;;4965474;28;20133;-54
2022/09/26 02:26:20;;;;;;;5.57;1.88;;;;;;;;;;4971051;28;20054;-65
2022/09/26 02:28:47;;;;;;;4.78;1.65;;;;;;;;;;4971982;28;20058;-61
2022/09/26 02:31:19;;;;;;;6.40;2.55;;;;;;;;;;4966057;28;20058;-59
2022/09/26 02:33:47;;;;;;;5.75;2.10;;;;;;;;;;4972489;28;20056;-58
2022/09/26 02:36:14;;;;;;;10.73;2.40;;;;;;;;;;4965204;28;20106;-60
2022/09/26 02:38:42;;;;;;;4.85;2.33;;;;;;;;;;4971648;28;20054;-61
2022/09/26 02:41:13;;;;;;;5.07;2.50;;;;;;;;;;4965786;28;20082;-54
2022/09/26 02:43:44;;;;;;;4.15;1.98;;;;;;;;;;4971293;28;20069;-53
2022/09/26 02:46:25;;;;;;;5.22;2.42;;;;;;;;;;4952807;28;20055;-58
2022/09/26 02:48:56;;;;;;;6.40;1.70;;;;;;;;;;4952245;28;20050;-63
2022/09/26 02:51:38;;;;;;;10.32;2.38;;;;;;;;;;4972530;28;20054;-63
2022/09/26 02:54:15;;;;;;;5.32;1.67;;;;;;;;;;4970674;28;20116;-62
2022/09/26 02:56:47;;;;;;;5.03;1.80;;;;;;;;;;4963942;28;20069;-63
2022/09/26 02:59:20;;;;;;;4.43;1.75;;;;;;;;;;4971539;28;20050;-57
2022/09/26 03:01:49;;;;;;;4.63;1.75;;;;;;;;;;4965819;28;20061;-59
2022/09/26 03:04:20;;;;;;;3.90;1.63;;;;;;;;;;4971303;28;20058;-60
2022/09/26 03:06:49;;;;;;;4.05;1.80;;;;;;;;;;4965128;28;20046;-61
2022/09/26 03:09:17;;;;;;;6.38;2.20;;;;;;;;;;4971134;28;20141;-60
2022/09/26 03:11:46;;;;;;;4.35;1.80;;;;;;;;;;4965101;28;20054;-56
2022/09/26 03:14:13;;;;;;;6.50;2.08;;;;;;;;;;4970129;28;20192;-58
2022/09/26 03:16:42;;;;;;;6.32;1.92;;;;;;;;;;4963911;28;20046;-59
2022/09/26 03:19:10;;;;;;;5.63;1.85;;;;;;;;;;4970570;28;20049;-58
2022/09/26 03:21:37;;;;;;;4.93;1.77;;;;;;;;;;4964863;28;20050;-61
2022/09/26 03:24:03;;;;;;;5.18;1.52;;;;;;;;;;4970642;28;20062;-54
2022/09/26 03:26:32;;;;;;;5.82;2.10;;;;;;;;;;4964306;28;20050;-61
2022/09/26 03:28:59;;;;;;;3.08;1.40;;;;;;;;;;4969752;28;20050;-60
2022/09/26 03:31:27;;;;;;;7.22;1.90;;;;;;;;;;4967152;28;20150;-55
2022/09/26 03:33:54;;;;;;;6.85;1.83;;;;;;;;;;4968682;28;20059;-58
2022/09/26 03:36:21;;;;;;;5.05;2.08;;;;;;;;;;4969989;28;20062;-55
2022/09/26 03:38:48;;;;;;;13.43;1.92;;;;;;;;;;4964029;28;20063;-54
2022/09/26 03:41:14;;;;;;;2.47;1.33;;;;;;;;;;4971233;28;20061;-65
2022/09/26 03:43:43;;;;;;;7.03;1.80;;;;;;;;;;4968776;28;20057;-59
2022/09/26 03:46:11;;;;;;;3.92;1.77;;;;;;;;;;4987166;28;20061;-65
2022/09/26 03:48:38;;;;;;;3.63;1.52;;;;;;;;;;4987652;28;20057;-64
2022/09/26 03:51:06;;;;;;;5.60;1.80;;;;;;;;;;4993201;28;20061;-65
2022/09/26 03:53:33;;;;;;;10.48;1.98;;;;;;;;;;4987173;28;20054;-64
2022/09/26 03:56:02;;;;;;;5.07;1.60;;;;;;;;;;4993066;28;20054;-57
2022/09/26 03:58:29;;;;;;;4.97;1.83;;;;;;;;;;4987231;28;20057;-60
2022/09/26 04:01:02;;;;;;;6.30;1.42;;;;;;;;;;4993088;28;20046;-57
2022/09/26 04:03:32;;;;;;;2.88;1.42;;;;;;;;;;4987181;28;20052;-58
2022/09/26 04:05:58;;;;;;;3.53;1.48;;;;;;;;;;4993034;28;20061;-64
2022/09/26 04:08:24;;;;;;;4.25;1.50;;;;;;;;;;4987590;28;20046;-59
2022/09/26 04:10:51;;;;;;;4.13;1.50;;;;;;;;;;4993591;28;20066;-56
2022/09/26 04:13:17;;;;;;;5.25;1.60;;;;;;;;;;4988326;28;20058;-57
2022/09/26 04:15:44;;;;;;;3.25;1.38;;;;;;;;;;4992791;28;20046;-56
2022/09/26 04:18:12;;;;;;;2.45;1.25;;;;;;;;;;4992940;28;20053;-57
2022/09/26 04:20:39;;;;;;;6.40;1.83;;;;;;;;;;5007955;28;20057;-56
2022/09/26 04:23:05;;;;;;;3.63;1.38;;;;;;;;;;4993006;28;20061;-57
2022/09/26 04:25:36;;;;;;;3.75;2.00;;;;;;;;;;4986856;28;20054;-55
2022/09/26 04:28:02;;;;;;;5.93;1.50;;;;;;;;;;5006758;28;20060;-61
2022/09/26 04:30:29;;;;;;;6.45;1.52;;;;;;;;;;5003142;28;20045;-57
2022/09/26 04:32:56;;;;;;;3.03;1.35;;;;;;;;;;4992664;28;20128;-60
2022/09/26 04:35:24;;;;;;;2.92;1.40;;;;;;;;;;4986204;28;20104;-58
2022/09/26 04:37:51;;;;;;;2.90;1.48;;;;;;;;;;4992490;28;20234;-58
2022/09/26 04:40:17;;;;;;;2.83;1.20;;;;;;;;;;4986977;28;20050;-60
2022/09/26 04:42:45;;;;;;;3.38;1.30;;;;;;;;;;4992236;28;20045;-62
2022/09/26 04:45:11;;;;;;;2.65;1.30;;;;;;;;;;4986702;28;20070;-60
2022/09/26 04:47:38;;;;;;;3.25;1.50;;;;;;;;;;4992934;28;20046;-54
2022/09/26 04:50:05;;;;;;;4.40;1.80;;;;;;;;;;4983252;28;20046;-55
2022/09/26 04:52:33;;;;;;;6.93;2.65;;;;;;;;;;4988141;28;20060;-60
2022/09/26 04:54:59;;;;;;;5.75;2.33;;;;;;;;;;4985919;28;20065;-56
2022/09/26 04:57:26;;;;;;;7.13;1.75;;;;;;;;;;4988808;28;20062;-52
2022/09/26 04:59:53;;;;;;;5.55;1.90;;;;;;;;;;4974068;28;20085;-58
2022/09/26 05:02:22;;;;;;;8.27;1.65;;;;;;;;;;4983564;28;20054;-55
2022/09/26 05:04:50;;;;;;;4.10;1.58;;;;;;;;;;5003881;28;20104;-53
2022/09/26 05:07:17;;;;;;;3.92;1.63;;;;;;;;;;4973428;28;20058;-58
2022/09/26 05:09:45;;;;;;;3.83;1.63;;;;;;;;;;4982571;28;20054;-54
2022/09/26 05:12:12;;;;;;;2.97;1.50;;;;;;;;;;4974024;28;20054;-61
2022/09/26 05:14:43;;;;;;;9.20;2.97;;;;;;;;;;4998900;28;20062;-60
2022/09/26 05:17:10;;;;;;;5.53;1.90;;;;;;;;;;4974658;28;20050;-63
2022/09/26 05:19:36;;;;;;;4.03;1.70;;;;;;;;;;4999966;28;20049;-63
2022/09/26 05:22:04;;;;;;;7.60;1.95;;;;;;;;;;4975868;28;20144;-50
2022/09/26 05:27:18;;;;;;;3.33;1.20;;;;;;;;;;4972137;28;20050;-53
2022/09/26 05:29:44;;;;;;;2.47;1.25;;;;;;;;;;4979149;28;20058;-57
2022/09/26 05:32:12;;;;;;;2.53;1.08;;;;;;;;;;4973506;28;20103;-53
2022/09/26 05:34:39;;;;;;;4.35;1.55;;;;;;;;;;4977181;28;20058;-59
2022/09/26 05:37:05;;;;;;;4.38;1.52;;;;;;;;;;4999062;28;20092;-60
2022/09/26 05:42:29;;;;;;;2.88;1.33;;;;;;;;;;4915192;29;20047;-61
2022/09/26 05:44:55;;;;;;;1.80;1.20;;;;;;;;;;4976678;28;20119;-60
2022/09/26 05:47:22;;;;;;;5.93;1.30;;;;;;;;;;4984667;28;20308;-58
2022/09/26 05:49:48;;;;;;;4.57;1.30;;;;;;;;;;4990678;28;20062;-57
2022/09/26 05:52:15;;;;;;;4.15;1.35;;;;;;;;;;4985342;28;20046;-58
2022/09/26 05:54:42;;;;;;;3.03;1.30;;;;;;;;;;4990038;28;20054;-58
2022/09/26 05:57:08;;;;;;;10.50;1.27;;;;;;;;;;4986056;28;20054;-58
2022/09/26 05:59:36;;;;;;;4.47;1.30;;;;;;;;;;4989500;28;20050;-65
2022/09/26 06:02:04;;;;;;;6.38;1.70;;;;;;;;;;4990993;28;20054;-57
2022/09/26 06:04:31;;;;;;;8.10;1.70;;;;;;;;;;4983522;28;20237;-58
2022/09/26 06:06:57;;;;;;;4.88;1.65;;;;;;;;;;4989898;28;20285;-54
2022/09/26 06:09:24;;;;;;;3.90;1.50;;;;;;;;;;4984101;28;20077;-59
2022/09/26 06:11:50;;;;;;;6.13;1.45;;;;;;;;;;4990846;28;20080;-54
2022/09/26 06:14:17;;;;;;;4.63;1.45;;;;;;;;;;4984153;28;20062;-53
2022/09/26 06:16:45;;;;;;;2.42;1.33;;;;;;;;;;4990444;28;20053;-60
2022/09/26 06:19:11;;;;;;;8.77;1.80;;;;;;;;;;4983076;28;20058;-57
2022/09/26 06:21:39;;;;;;;6.63;2.13;;;;;;;;;;5006903;28;20305;-59
2022/09/26 06:24:05;;;;;;;4.75;1.70;;;;;;;;;;4983705;28;20106;-63
2022/09/26 06:26:32;;;;;;;5.07;1.65;;;;;;;;;;4989882;28;20046;-63
2022/09/26 06:28:59;;;;;;;2.63;1.45;;;;;;;;;;4984230;28;20085;-50
2022/09/26 06:31:26;;;;;;;2.80;1.70;;;;;;;;;;4990075;28;20120;-64
2022/09/26 06:33:55;;;;;;;2.78;1.17;;;;;;;;;;4983821;28;20030;-61
2022/09/26 06:36:22;;;;;;;2.88;1.30;;;;;;;;;;4989635;28;20074;-56
2022/09/26 06:38:49;;;;;;;5.28;1.52;;;;;;;;;;4983408;28;20046;-57
2022/09/26 06:41:16;;;;;;;3.25;1.42;;;;;;;;;;4989068;28;20082;-57
2022/09/26 06:43:43;;;;;;;4.18;1.30;;;;;;;;;;4988268;28;20123;-63
2022/09/26 06:46:10;;;;;;;4.97;1.40;;;;;;;;;;4998402;28;20061;-59
2022/09/26 06:48:37;;;;;;;3.58;1.27;;;;;;;;;;4989232;28;20060;-63
2022/09/26 06:51:05;;;;;;;9.02;1.35;;;;;;;;;;4998151;28;20053;-54
2022/09/26 06:53:33;;;;;;;5.93;1.65;;;;;;;;;;4989600;28;20054;-52
2022/09/26 06:56:01;;;;;;;2.45;1.30;;;;;;;;;;4970871;28;20058;-58
2022/09/26 06:58:28;;;;;;;3.15;1.48;;;;;;;;;;5003294;28;20054;-53
2022/09/26 07:00:55;;;;;;;5.00;1.25;;;;;;;;;;5000095;28;20108;-58
2022/09/26 07:03:25;;;;;;;3.08;1.40;;;;;;;;;;4990203;28;20127;-55
2022/09/26 07:05:54;;;;;;;4.00;1.50;;;;;;;;;;4983228;28;20066;-59
2022/09/26 07:08:20;;;;;;;;;;;;;;;;;;4990753;28;20054;-60
2022/09/26 07:10:48;;;;;;;3.90;1.52;;;;;;;;;;4983559;28;20001;-57
2022/09/26 07:13:16;;;;;;;3.30;1.13;;;;;;;;;;4989096;28;20050;-54
2022/09/26 07:15:44;;;;;;;6.17;2.00;;;;;;;;;;4983746;28;20089;-58
2022/09/26 07:18:11;;;;;;;6.10;1.60;;;;;;;;;;4989164;28;20054;-54
2022/09/26 07:20:40;;;;;;;7.18;1.70;;;;;;;;;;4983543;28;20054;-58
2022/09/26 07:23:07;;;;;;;;;;;;;;;;;;4990554;28;20108;-56
2022/09/26 07:25:36;;;;;;;5.32;1.30;;;;;;;;;;5000863;28;19932;-52
2022/09/26 07:28:05;;;;;;;3.85;1.33;;;;;;;;;;4989452;28;20062;-53
2022/09/26 07:30:31;;;;;;;5.53;1.75;;;;;;;;;;4991309;28;20054;-57
2022/09/26 07:32:59;;;;;;;3.10;1.23;;;;;;;;;;4966358;28;20065;-61
2022/09/26 07:35:27;;;;;;;4.88;1.23;;;;;;;;;;4971917;28;20054;-59
2022/09/26 07:37:53;;;;;;;9.90;1.52;;;;;;;;;;4982615;28;20046;-60
2022/09/26 07:40:21;;;;;;;4.95;1.60;;;;;;;;;;4992240;28;20053;-57
2022/09/26 07:42:50;;;;;;;9.70;1.52;;;;;;;;;;4998813;28;20046;-56
2022/09/26 07:50:09;;;;;;;3.65;1.40;;;;;;;;;;4986935;28;20054;-57
2022/09/26 07:50:52;;;;;;;4.18;1.50;;;;;;;;;;4989999;28;20061;-58
2022/09/26 07:53:19;;;;;;;3.05;1.33;;;;;;;;;;4983180;28;20080;-54
2022/09/26 07:58:26;;;;;;;3.00;1.27;;;;;;;;;;4986404;28;20135;-62
2022/09/26 08:00:54;;;;;;;4.80;1.30;;;;;;;;;;4988698;28;20139;-60
2022/09/26 08:03:22;;;;;;;3.35;1.17;;;;;;;;;;4983350;28;20046;-57
2022/09/26 08:05:48;;;;;;;6.65;1.38;;;;;;;;;;4988340;28;20062;-58
2022/09/26 08:08:15;;;;;;;4.40;1.33;;;;;;;;;;4983690;28;20065;-54
2022/09/26 08:10:43;;;;;;;4.10;1.20;;;;;;;;;;4989479;28;20077;-56
2022/09/26 08:13:10;;;;;;;4.65;1.40;;;;;;;;;;4982557;28;20050;-63
2022/09/26 08:15:37;;;;;;;3.35;1.10;;;;;;;;;;4989060;28;20058;-55
2022/09/26 08:18:05;;;;;;;4.43;1.15;;;;;;;;;;4982478;28;20060;-55
2022/09/26 08:20:32;;;;;;;3.53;1.38;;;;;;;;;;4988978;28;20050;-53
2022/09/26 08:22:59;;;;;;;4.60;1.30;;;;;;;;;;4983406;28;20077;-55
2022/09/26 08:25:26;;;;;;;1.85;0.80;;;;;;;;;;4989042;28;20072;-54
2022/09/26 08:27:58;;;;;;;5.15;1.30;;;;;;;;;;4990439;28;20135;-58
2022/09/26 08:30:26;;;;;;;3.28;1.20;;;;;;;;;;4991361;28;20054;-59
2022/09/26 08:32:53;;;;;;;2.60;1.13;;;;;;;;;;4992556;28;20068;-53
2022/09/26 08:35:21;;;;;;;3.15;1.10;;;;;;;;;;4986603;28;20046;-60
2022/09/26 08:37:48;;;;;;;2.60;1.00;;;;;;;;;;4992604;28;20133;-53
2022/09/26 08:40:15;;;;;;;6.70;1.40;;;;;;;;;;4981461;28;20054;-54
2022/09/26 08:42:47;;;;;;;2.70;1.08;;;;;;;;;;4972648;28;20058;-53
2022/09/26 08:48:13;;;;;;;3.83;1.13;;;;;;;;;;4992831;28;20076;-59
2022/09/26 08:50:45;;;;;;;9.38;1.30;;;;;;;;;;5001954;28;20050;-62
2022/09/26 08:53:14;;;;;;;2.47;1.10;;;;;;;;;;4991731;28;20046;-60
2022/09/26 08:55:41;;;;;;;4.22;1.30;;;;;;;;;;4985632;28;20054;-56
2022/09/26 08:58:14;;;;;;;2.67;1.23;;;;;;;;;;4992263;28;20053;-54
2022/09/26 09:00:41;;;;;;;2.75;1.20;;;;;;;;;;4993951;28;20068;-53
2022/09/26 09:03:15;;;;;;;6.30;1.53;;;;;;;;;;4991470;28;20133;-56
2022/09/26 09:05:44;;;;;;;3.03;1.20;;;;;;;;;;4985927;28;20141;-59
2022/09/26 09:08:12;;;;;;;3.35;1.00;;;;;;;;;;5009431;28;20220;-56
2022/09/26 09:10:44;;;;;;;4.40;1.13;;;;;;;;;;4986073;28;20335;-60
2022/09/26 09:13:17;;;;;;;4.13;1.15;;;;;;;;;;4992359;28;20060;-62
2022/09/26 09:15:52;;;;;;;3.42;1.30;;;;;;;;;;4999826;28;20061;-55
2022/09/26 09:18:26;;;;;;;3.92;1.15;;;;;;;;;;4991792;28;20050;-56
2022/09/26 09:20:57;;;;;;;3.38;1.15;;;;;;;;;;4985563;28;20077;-62
2022/09/26 09:23:40;;;;;;;3.03;1.10;;;;;;;;;;4992168;28;20061;-53
2022/09/26 09:26:10;;;;;;;3.85;1.50;;;;;;;;;;4985044;28;20050;-53
2022/09/26 09:28:46;;;;;;;4.20;1.45;;;;;;;;;;4992040;28;20054;-57
2022/09/26 09:31:15;;;;;;;7.82;1.20;;;;;;;;;;4985849;28;20054;-54
2022/09/26 09:33:44;;;;;;;4.03;1.30;;;;;;;;;;4992066;28;20069;-56
2022/09/26 09:36:10;;;;;;;;;;;;;;;;;;4985348;28;20060;-56
2022/09/26 09:38:40;;;;;;;2.17;1.10;;;;;;;;;;4991622;28;19933;-59
2022/09/26 09:41:09;;;;;;;5.05;1.25;;;;;;;;;;4976246;28;20057;-64
2022/09/26 09:43:37;;;;;;;4.95;1.52;;;;;;;;;;4981820;28;20119;-60
2022/09/26 09:46:05;;;;;;;1.88;1.10;;;;;;;;;;4968318;28;20062;-57
2022/09/26 09:48:32;;;;;;;2.37;1.10;;;;;;;;;;4972573;28;20054;-59
2022/09/26 09:51:09;;;;;;;5.78;1.38;;;;;;;;;;4973136;28;20054;-56
2022/09/26 09:53:47;;;;;;;4.57;1.10;;;;;;;;;;5002520;28;20113;-53
2022/09/26 09:56:20;;;;;;;4.32;1.40;;;;;;;;;;5006080;28;20070;-57
2022/09/26 09:59:02;;;;;;;5.55;1.45;;;;;;;;;;4986930;28;20058;-52
2022/09/26 10:01:34;;;;;;;2.80;1.20;;;;;;;;;;4990490;28;20058;-51
2022/09/26 10:04:06;;;;;;;5.95;1.48;;;;;;;;;;4982787;28;20054;-48
2022/09/26 10:06:33;;;;;;;5.05;1.45;;;;;;;;;;4987115;28;20091;-55
2022/09/26 10:09:11;;;;;;;2.47;1.45;;;;;;;;;;4982467;28;20050;-63
2022/09/26 10:11:40;;;;;;;4.43;1.33;;;;;;;;;;4987907;28;20050;-53
2022/09/26 10:14:11;;;;;;;4.80;1.20;;;;;;;;;;4981650;28;20061;-61
2022/09/26 10:16:59;;;;;;;6.13;1.30;;;;;;;;;;4986660;28;20058;-61
2022/09/26 10:19:26;;;;;;;;;;;;;;;;;;4980894;28;20062;-54
2022/09/26 10:21:52;;;;;;;3.03;1.20;;;;;;;;;;5003061;28;19932;-52
2022/09/26 10:24:24;;;;;;;4.15;1.15;;;;;;;;;;4981253;28;20062;-58
2022/09/26 10:26:50;;;;;;;7.18;1.20;;;;;;;;;;4986407;28;20061;-61
2022/09/26 10:29:22;;;;;;;5.68;1.55;;;;;;;;;;4981380;28;20058;-55
2022/09/26 10:31:55;;;;;;;4.90;1.52;;;;;;;;;;4986891;28;20146;-59
2022/09/26 10:34:23;;;;;;;7.60;1.63;;;;;;;;;;4981184;28;20054;-58
2022/09/26 10:36:49;;;;;;;8.07;2.05;;;;;;;;;;4987136;28;20046;-52
2022/09/26 10:42:04;;;;;;;5.22;1.45;;;;;;;;;;4986572;28;20149;-58
2022/09/26 10:44:33;;;;;;;4.28;1.48;;;;;;;;;;4980404;28;20129;-65
2022/09/26 10:47:07;;;;;;;3.03;1.10;;;;;;;;;;4986497;28;20129;-53
2022/09/26 10:49:38;;;;;;;6.15;1.45;;;;;;;;;;4980650;28;20061;-64
2022/09/26 10:52:10;;;;;;;4.82;1.17;;;;;;;;;;4986407;28;20058;-59
2022/09/26 10:54:40;;;;;;;3.55;1.20;;;;;;;;;;4972085;28;20042;-56
2022/09/26 10:57:17;;;;;;;6.80;1.55;;;;;;;;;;4966896;28;20053;-63
2022/09/26 10:59:44;;;;;;;2.50;1.05;;;;;;;;;;4960774;28;20050;-54
2022/09/26 11:02:13;;;;;;;3.05;1.13;;;;;;;;;;4966544;28;20074;-60
2022/09/26 11:07:34;;;;;;;3.13;0.88;;;;;;;;;;4986191;28;20137;-55
2022/09/26 11:10:05;;;;;;;3.88;1.35;;;;;;;;;;4974285;28;20136;-61
2022/09/26 11:12:38;;;;;;;6.10;1.20;;;;;;;;;;4967024;28;20062;-63
2022/09/26 11:15:07;;;;;;;2.65;1.20;;;;;;;;;;4962132;28;20316;-62
2022/09/26 11:17:43;;;;;;;5.22;1.33;;;;;;;;;;4966635;28;20055;-59
2022/09/26 11:20:12;;;;;;;5.28;1.33;;;;;;;;;;4961610;28;20085;-56
2022/09/26 11:22:43;;;;;;;5.35;1.45;;;;;;;;;;4966698;28;20074;-59
2022/09/26 11:25:12;;;;;;;3.92;1.08;;;;;;;;;;4960165;28;20066;-52
2022/09/26 11:27:43;;;;;;;4.20;1.40;;;;;;;;;;4966693;28;20051;-49
2022/09/26 11:30:11;;;;;;;2.50;1.20;;;;;;;;;;4962281;28;20054;-60
2022/09/26 11:32:45;;;;;;;2.78;1.20;;;;;;;;;;4968367;28;20074;-63
2022/09/26 11:35:13;;;;;;;1.52;1.13;;;;;;;;;;4967410;28;20058;-47
2022/09/26 11:37:51;;;;;;;3.03;1.30;;;;;;;;;;4983604;28;20054;-56
2022/09/26 11:40:25;;;;;;;2.60;1.40;;;;;;;;;;4975288;28;20056;-64
2022/09/26 11:42:58;;;;;;;2.35;0.90;;;;;;;;;;4964682;28;20058;-60
2022/09/26 11:45:31;;;;;;;2.70;1.08;;;;;;;;;;4982567;28;20059;-60
2022/09/26 11:48:12;;;;;;;2.63;1.00;;;;;;;;;;4976686;28;20082;-61
2022/09/26 11:50:47;;;;;;;4.55;1.20;;;;;;;;;;4982889;28;20058;-63
2022/09/26 11:53:29;;;;;;;3.03;1.17;;;;;;;;;;4964450;28;20053;-65
2022/09/26 11:56:07;;;;;;;2.60;1.33;;;;;;;;;;4988942;28;20141;-56
2022/09/26 11:58:39;;;;;;;3.90;1.45;;;;;;;;;;4989479;28;20100;-61
2022/09/26 12:01:15;;;;;;;2.45;1.23;;;;;;;;;;4989869;28;20068;-67
2022/09/26 12:04:05;;;;;;;2.92;1.15;;;;;;;;;;4992613;28;20132;-64
2022/09/26 12:06:34;;;;;;;8.30;1.90;;;;;;;;;;4989695;28;20054;-60
2022/09/26 12:09:15;;;;;;;4.25;0.85;;;;;;;;;;4994957;28;20060;-56
2022/09/26 12:11:46;;;;;;;4.05;1.10;;;;;;;;;;4990466;28;20049;-61
2022/09/26 12:14:35;;;;;;;2.42;1.05;;;;;;;;;;4973959;28;20054;-56
2022/09/26 12:17:06;;;;;;;2.90;1.05;;;;;;;;;;4983429;28;20050;-59
2022/09/26 12:19:37;;;;;;;4.68;1.10;;;;;;;;;;4991544;28;20081;-55
2022/09/26 12:24:57;;;;;;;6.25;1.17;;;;;;;;;;4990809;28;20161;-48
2022/09/26 12:27:25;;;;;;;1.95;0.90;;;;;;;;;;4985572;28;20050;-59
2022/09/26 12:30:01;;;;;;;4.82;1.10;;;;;;;;;;4991185;28;20052;-62
2022/09/26 12:32:35;;;;;;;2.55;1.10;;;;;;;;;;4989227;28;20057;-60
2022/09/26 12:35:19;;;;;;;2.90;1.10;;;;;;;;;;4978798;28;20054;-57
2022/09/26 12:38:00;;;;;;;1.58;0.90;;;;;;;;;;4986563;28;20054;-59
2022/09/26 12:40:33;;;;;;;2.63;1.08;;;;;;;;;;4986589;28;20058;-57
2022/09/26 12:43:12;;;;;;;2.08;1.10;;;;;;;;;;4969235;28;20052;-63
2022/09/26 12:45:49;;;;;;;1.92;0.90;;;;;;;;;;4992356;28;20077;-60
2022/09/26 12:48:20;;;;;;;2.20;1.10;;;;;;;;;;4986130;28;20053;-53
2022/09/26 12:50:53;;;;;;;1.60;1.00;;;;;;;;;;4991080;28;20125;-58
2022/09/26 12:53:33;;;;;;;3.08;1.10;;;;;;;;;;4987567;28;20038;-57
2022/09/26 12:56:05;;;;;;;2.55;1.00;;;;;;;;;;4972505;28;20054;-58
2022/09/26 12:58:48;;;;;;;2.47;1.00;;;;;;;;;;4984908;28;20046;-56
2022/09/26 13:01:24;;;;;;;4.72;0.90;;;;;;;;;;4991691;28;20054;-54
2022/09/26 13:04:11;;;;;;;2.28;0.90;;;;;;;;;;4985794;28;20068;-67
2022/09/26 13:06:45;;;;;;;1.65;0.80;;;;;;;;;;4966561;28;20060;-57
2022/09/26 13:09:18;;;;;;;1.45;0.90;;;;;;;;;;4985601;28;20069;-54
2022/09/26 13:11:53;;;;;;;2.38;1.00;;;;;;;;;;4992286;28;20108;-55
2022/09/26 13:14:26;;;;;;;2.33;1.00;;;;;;;;;;4985776;28;20052;-60
2022/09/26 13:17:08;;;;;;;4.00;0.98;;;;;;;;;;4991751;28;20057;-56
2022/09/26 13:19:37;;;;;;;1.50;0.80;;;;;;;;;;4985826;28;20111;-56
2022/09/26 13:22:05;;;;;;;1.80;0.90;;;;;;;;;;4992212;28;20053;-58
2022/09/26 13:24:35;;;;;;;3.00;0.98;;;;;;;;;;4987024;28;20060;-64
2022/09/26 13:27:09;;;;;;;2.13;0.90;;;;;;;;;;4990099;28;20062;-60
2022/09/26 13:29:36;;;;;;;1.75;0.70;;;;;;;;;;4991493;28;20045;-63
2022/09/26 13:32:10;;;;;;;1.70;0.95;;;;;;;;;;4985191;28;20058;-59
2022/09/26 13:34:38;;;;;;;1.55;0.70;;;;;;;;;;4991067;28;20061;-60
2022/09/26 13:37:06;;;;;;;;;;;;;;;;;;4985170;28;20054;-56
2022/09/26 13:39:37;;;;;;;1.30;0.70;;;;;;;;;;4991267;28;19925;-59
2022/09/26 13:42:07;;;;;;;2.17;1.00;;;;;;;;;;4984515;28;20054;-60
2022/09/26 13:44:43;;;;;;;1.58;0.77;;;;;;;;;;4991009;28;20054;-56
2022/09/26 13:47:18;;;;;;;1.42;0.90;;;;;;;;;;4984989;28;20057;-55
2022/09/26 13:49:50;;;;;;;2.65;1.00;;;;;;;;;;4991565;28;20185;-56
2022/09/26 13:52:24;;;;;;;1.10;0.75;;;;;;;;;;4985086;28;20068;-60
2022/09/26 13:54:57;;;;;;;1.73;0.90;;;;;;;;;;4987510;28;20054;-58
2022/09/26 13:57:37;;;;;;;1.27;1.00;;;;;;;;;;4968823;28;20054;-65
2022/09/26 14:00:11;;;;;;;1.80;0.73;;;;;;;;;;4984460;28;20050;-59
2022/09/26 14:02:41;;;;;;;1.27;0.80;;;;;;;;;;4976377;28;20060;-61
2022/09/26 14:05:27;;;;;;;0.95;0.73;;;;;;;;;;4987704;28;20062;-69
2022/09/26 14:10:38;;;;;;;1.27;0.73;;;;;;;;;;4986851;28;20197;-56
2022/09/26 14:13:18;;;;;;;0.60;0.60;;;;;;;;;;4983022;28;20046;-63
2022/09/26 14:15:56;;;;;;;1.80;0.73;;;;;;;;;;4987403;28;20086;-62
2022/09/26 14:18:33;;;;;;;3.80;0.70;;;;;;;;;;4982082;28;20062;-59
2022/09/26 14:21:06;;;;;;;2.20;0.80;;;;;;;;;;4988587;28;20054;-56
2022/09/26 14:23:38;;;;;;;3.15;0.90;;;;;;;;;;4981340;28;20061;-59
2022/09/26 14:26:06;;;;;;;2.20;0.70;;;;;;;;;;4987178;28;20054;-60
2022/09/26 14:28:33;;;;;;;1.65;0.80;;;;;;;;;;4981461;28;20057;-54
2022/09/26 14:31:24;;;;;;;0.93;0.65;;;;;;;;;;4986039;28;20058;-57
2022/09/26 14:34:11;;;;;;;0.88;0.60;;;;;;;;;;4957441;28;20050;-57
2022/09/26 14:36:37;;;;;;;1.48;0.80;;;;;;;;;;4986629;28;20054;-58
2022/09/26 14:39:05;;;;;;;4.25;0.80;;;;;;;;;;4980725;28;20056;-55
2022/09/26 14:41:33;;;;;;;0.63;0.60;;;;;;;;;;4988232;28;20054;-58
2022/09/26 14:44:01;;;;;;;3.60;0.60;;;;;;;;;;4983127;28;20065;-54
2022/09/26 14:46:31;;;;;;;;;;;;;;;;;;4989624;28;20322;-48
2022/09/26 14:49:02;;;;;;;0.98;0.60;;;;;;;;;;4981965;28;19980;-49
2022/09/26 14:51:30;;;;;;;0.80;0.80;;;;;;;;;;4987271;28;20061;-57
2022/09/26 14:53:59;;;;;;;1.23;0.80;;;;;;;;;;4980741;28;20043;-59
2022/09/26 14:56:39;;;;;;;1.10;0.80;;;;;;;;;;5000877;28;20054;-61
2022/09/26 14:59:24;;;;;;;0.98;0.70;;;;;;;;;;4973598;28;20043;-58
2022/09/26 15:01:52;;;;;;;0.93;0.52;;;;;;;;;;4967941;28;20065;-57
2022/09/26 15:04:21;;;;;;;1.58;0.85;;;;;;;;;;4991237;28;20054;-56
2022/09/26 15:06:47;;;;;;;;;;;;;;;;;;4986220;28;20073;-62
2022/09/26 15:09:18;;;;;;;4.47;0.50;;;;;;;;;;4981383;28;19929;-60
2022/09/26 15:11:46;;;;;;;3.58;1.00;;;;;;;;;;4987056;28;20076;-58
2022/09/26 15:14:25;;;;;;;3.08;0.75;;;;;;;;;;4980568;28;20042;-60
2022/09/26 15:16:53;;;;;;;0.70;0.60;;;;;;;;;;4986355;28;20141;-61
2022/09/26 15:19:24;;;;;;;1.85;0.95;;;;;;;;;;4981083;28;20046;-59
2022/09/26 15:21:56;;;;;;;2.42;1.00;;;;;;;;;;4986717;28;20061;-63
2022/09/26 15:24:23;;;;;;;1.10;0.82;;;;;;;;;;4980195;28;20085;-64
2022/09/26 15:26:50;;;;;;;2.00;0.90;;;;;;;;;;4985956;28;20062;-61
2022/09/26 15:29:17;;;;;;;3.65;0.68;;;;;;;;;;4986664;28;20125;-62